sensor_id;sensor_type;location;lat;lon;timestamp;pressure;altitude;pressure_sealevel;temperature;humidity
64404;BME280;50726;54.912;-8.392;2023-02-11T00:01:31;102479.25;;;30.48;56.47
64404;BME280;50726;54.912;-8.392;2023-02-11T00:03:58;102464.94;;;31.26;56.17
64404;BME280;50726;54.912;-8.392;2023-02-11T00:06:25;102503.31;;;28.93;58.51
64404;BME280;50726;54.912;-8.392;2023-02-11T00:08:53;102486.06;;;28.70;58.98
64404;BME280;50726;54.912;-8.392;2023-02-11T00:11:20;102476.56;;;29.03;60.46
64404;BME280;50726;54.912;-8.392;2023-02-11T00:13:47;102462.81;;;29.93;59.46
64404;BME280;50726;54.912;-8.392;2023-02-11T00:16:16;102472.97;;;30.36;59.23
64404;BME280;50726;54.912;-8.392;2023-02-11T00:18:42;102491.28;;;30.55;57.28
64404;BME280;50726;54.912;-8.392;2023-02-11T00:21:10;102467.13;;;30.88;57.92
64404;BME280;50726;54.912;-8.392;2023-02-11T00:23:36;102485.25;;;30.52;56.74
64404;BME280;50726;54.912;-8.392;2023-02-11T00:26:03;102495.94;;;31.11;55.82
64404;BME280;50726;54.912;-8.392;2023-02-11T00:28:29;102470.59;;;31.23;55.60
64404;BME280;50726;54.912;-8.392;2023-02-11T00:30:56;102483.44;;;30.75;55.88
64404;BME280;50726;54.912;-8.392;2023-02-11T00:33:22;102495.69;;;31.14;54.86
64404;BME280;50726;54.912;-8.392;2023-02-11T00:35:49;102465.53;;;30.04;57.96
64404;BME280;50726;54.912;-8.392;2023-02-11T00:38:15;102467.84;;;31.46;53.17
64404;BME280;50726;54.912;-8.392;2023-02-11T00:40:40;102476.50;;;29.54;56.06
64404;BME280;50726;54.912;-8.392;2023-02-11T00:43:06;102481.09;;;30.59;54.90
64404;BME280;50726;54.912;-8.392;2023-02-11T00:45:32;102474.34;;;29.59;54.86
64404;BME280;50726;54.912;-8.392;2023-02-11T00:47:57;102484.38;;;30.51;55.74
64404;BME280;50726;54.912;-8.392;2023-02-11T00:50:23;102491.19;;;29.12;57.22
64404;BME280;50726;54.912;-8.392;2023-02-11T00:52:50;102481.72;;;30.04;55.80
64404;BME280;50726;54.912;-8.392;2023-02-11T00:55:16;102489.31;;;30.58;54.78
64404;BME280;50726;54.912;-8.392;2023-02-11T00:57:42;102498.34;;;28.87;57.47
64404;BME280;50726;54.912;-8.392;2023-02-11T01:00:10;102484.53;;;29.05;57.22
64404;BME280;50726;54.912;-8.392;2023-02-11T01:02:36;102499.72;;;26.60;60.60
64404;BME280;50726;54.912;-8.392;2023-02-11T01:05:01;102477.19;;;27.06;61.84
64404;BME280;50726;54.912;-8.392;2023-02-11T01:07:27;102471.09;;;27.73;58.33
64404;BME280;50726;54.912;-8.392;2023-02-11T01:09:54;102480.56;;;29.84;57.67
64404;BME280;50726;54.912;-8.392;2023-02-11T01:12:20;102471.13;;;27.99;60.28
64404;BME280;50726;54.912;-8.392;2023-02-11T01:14:46;102472.50;;;27.79;59.53
64404;BME280;50726;54.912;-8.392;2023-02-11T01:17:12;102452.03;;;28.69;58.66
64404;BME280;50726;54.912;-8.392;2023-02-11T01:19:37;102471.31;;;27.28;61.34
64404;BME280;50726;54.912;-8.392;2023-02-11T01:22:04;102471.41;;;28.74;59.36
64404;BME280;50726;54.912;-8.392;2023-02-11T01:24:30;102506.44;;;26.81;62.70
64404;BME280;50726;54.912;-8.392;2023-02-11T01:26:55;102471.19;;;28.38;60.55
64404;BME280;50726;54.912;-8.392;2023-02-11T01:29:21;102460.97;;;27.22;61.05
64404;BME280;50726;54.912;-8.392;2023-02-11T01:31:47;102470.78;;;28.58;59.71
64404;BME280;50726;54.912;-8.392;2023-02-11T01:34:12;102473.59;;;28.30;58.98
64404;BME280;50726;54.912;-8.392;2023-02-11T01:36:39;102458.94;;;27.53;61.77
64404;BME280;50726;54.912;-8.392;2023-02-11T01:39:05;102468.19;;;29.57;59.37
64404;BME280;50726;54.912;-8.392;2023-02-11T01:41:33;102477.41;;;29.04;59.91
64404;BME280;50726;54.912;-8.392;2023-02-11T01:44:25;102471.53;;;30.78;56.63
64404;BME280;50726;54.912;-8.392;2023-02-11T01:46:51;102476.34;;;29.80;58.86
64404;BME280;50726;54.912;-8.392;2023-02-11T01:49:21;102475.41;;;29.56;58.14
64404;BME280;50726;54.912;-8.392;2023-02-11T01:52:07;102492.00;;;28.88;58.80
64404;BME280;50726;54.912;-8.392;2023-02-11T01:54:37;102498.03;;;27.99;61.42
64404;BME280;50726;54.912;-8.392;2023-02-11T01:57:25;102536.91;;;29.01;59.36
64404;BME280;50726;54.912;-8.392;2023-02-11T02:03:02;102498.81;;;30.16;58.04
64404;BME280;50726;54.912;-8.392;2023-02-11T02:10:45;102466.22;;;30.31;57.49
64404;BME280;50726;54.912;-8.392;2023-02-11T02:13:12;102468.19;;;29.57;57.26
64404;BME280;50726;54.912;-8.392;2023-02-11T02:15:42;102479.03;;;30.86;57.17
64404;BME280;50726;54.912;-8.392;2023-02-11T02:26:32;102464.06;;;28.76;65.43
64404;BME280;50726;54.912;-8.392;2023-02-11T02:32:34;102475.19;;;28.33;69.51
64404;BME280;50726;54.912;-8.392;2023-02-11T02:43:16;102452.53;;;29.62;62.18
64404;BME280;50726;54.912;-8.392;2023-02-11T02:45:41;102444.53;;;28.35;63.38
64404;BME280;50726;54.912;-8.392;2023-02-11T02:48:25;102455.44;;;30.31;59.08
64404;BME280;50726;54.912;-8.392;2023-02-11T02:51:08;102470.13;;;28.93;61.69
64404;BME280;50726;54.912;-8.392;2023-02-11T03:01:58;102467.31;;;28.17;67.30
64404;BME280;50726;54.912;-8.392;2023-02-11T03:10:01;102452.00;;;29.57;61.41
64404;BME280;50726;54.912;-8.392;2023-02-11T03:12:32;102449.28;;;31.08;58.76
64404;BME280;50726;54.912;-8.392;2023-02-11T03:15:00;102455.13;;;31.37;57.61
64404;BME280;50726;54.912;-8.392;2023-02-11T03:17:28;102468.53;;;30.24;59.68
64404;BME280;50726;54.912;-8.392;2023-02-11T03:19:57;102452.81;;;30.18;57.11
64404;BME280;50726;54.912;-8.392;2023-02-11T03:22:31;102455.53;;;32.07;56.00
64404;BME280;50726;54.912;-8.392;2023-02-11T03:24:59;102454.47;;;30.66;56.48
64404;BME280;50726;54.912;-8.392;2023-02-11T03:30:11;102470.66;;;30.66;55.81
64404;BME280;50726;54.912;-8.392;2023-02-11T03:32:40;102455.69;;;29.56;58.80
64404;BME280;50726;54.912;-8.392;2023-02-11T03:35:11;102464.00;;;27.85;62.72
64404;BME280;50726;54.912;-8.392;2023-02-11T03:37:47;102456.06;;;30.57;58.74
64404;BME280;50726;54.912;-8.392;2023-02-11T03:40:19;102462.88;;;29.31;61.36
64404;BME280;50726;54.912;-8.392;2023-02-11T03:43:09;102461.34;;;30.00;60.10
64404;BME280;50726;54.912;-8.392;2023-02-11T03:45:37;102462.28;;;29.87;60.15
64404;BME280;50726;54.912;-8.392;2023-02-11T03:50:39;102432.66;;;28.90;59.98
64404;BME280;50726;54.912;-8.392;2023-02-11T03:53:07;102444.09;;;31.05;57.63
64404;BME280;50726;54.912;-8.392;2023-02-11T03:55:37;102459.41;;;30.02;57.97
64404;BME280;50726;54.912;-8.392;2023-02-11T03:58:04;102462.66;;;29.83;59.15
64404;BME280;50726;54.912;-8.392;2023-02-11T04:00:32;102460.59;;;28.09;61.31
64404;BME280;50726;54.912;-8.392;2023-02-11T04:02:58;102447.06;;;30.11;58.15
64404;BME280;50726;54.912;-8.392;2023-02-11T04:05:24;102454.47;;;30.66;57.29
64404;BME280;50726;54.912;-8.392;2023-02-11T04:07:49;102450.59;;;29.27;57.94
64404;BME280;50726;54.912;-8.392;2023-02-11T04:10:15;102466.41;;;31.42;54.53
64404;BME280;50726;54.912;-8.392;2023-02-11T04:12:41;102455.94;;;30.47;54.71
64404;BME280;50726;54.912;-8.392;2023-02-11T04:15:07;102460.13;;;31.74;53.95
64404;BME280;50726;54.912;-8.392;2023-02-11T04:17:33;102449.44;;;32.36;51.23
64404;BME280;50726;54.912;-8.392;2023-02-11T04:19:59;102440.84;;;30.45;52.59
64404;BME280;50726;54.912;-8.392;2023-02-11T04:22:25;102441.47;;;30.01;52.26
64404;BME280;50726;54.912;-8.392;2023-02-11T04:24:50;102446.16;;;33.74;49.78
64404;BME280;50726;54.912;-8.392;2023-02-11T04:27:16;102447.47;;;29.57;50.78
64404;BME280;50726;54.912;-8.392;2023-02-11T04:29:42;102443.31;;;32.65;49.26
64404;BME280;50726;54.912;-8.392;2023-02-11T04:32:09;102433.06;;;30.06;51.43
64404;BME280;50726;54.912;-8.392;2023-02-11T04:34:35;102430.69;;;30.01;53.74
64404;BME280;50726;54.912;-8.392;2023-02-11T04:37:01;102445.50;;;29.11;52.93
64404;BME280;50726;54.912;-8.392;2023-02-11T04:39:27;102435.81;;;30.86;53.73
64404;BME280;50726;54.912;-8.392;2023-02-11T04:41:52;102422.84;;;29.98;53.90
64404;BME280;50726;54.912;-8.392;2023-02-11T04:44:18;102444.63;;;30.19;52.01
64404;BME280;50726;54.912;-8.392;2023-02-11T04:46:44;102443.06;;;30.62;52.65
64404;BME280;50726;54.912;-8.392;2023-02-11T04:49:14;102445.97;;;32.34;49.82
64404;BME280;50726;54.912;-8.392;2023-02-11T04:51:40;102447.69;;;32.04;48.23
64404;BME280;50726;54.912;-8.392;2023-02-11T04:54:06;102458.41;;;31.73;49.04
64404;BME280;50726;54.912;-8.392;2023-02-11T04:56:33;102442.84;;;31.21;49.00
64404;BME280;50726;54.912;-8.392;2023-02-11T04:58:59;102453.50;;;32.52;47.97
64404;BME280;50726;54.912;-8.392;2023-02-11T05:01:24;102466.84;;;29.38;50.64
64404;BME280;50726;54.912;-8.392;2023-02-11T05:03:50;102454.34;;;32.21;47.26
64404;BME280;50726;54.912;-8.392;2023-02-11T05:06:16;102462.56;;;29.60;51.28
64404;BME280;50726;54.912;-8.392;2023-02-11T05:08:42;102457.25;;;32.08;47.39
64404;BME280;50726;54.912;-8.392;2023-02-11T05:11:15;102458.31;;;31.96;48.68
64404;BME280;50726;54.912;-8.392;2023-02-11T05:13:41;102453.09;;;32.98;46.67
64404;BME280;50726;54.912;-8.392;2023-02-11T05:16:07;102459.59;;;34.99;42.80
64404;BME280;50726;54.912;-8.392;2023-02-11T05:18:33;102452.03;;;33.50;44.74
64404;BME280;50726;54.912;-8.392;2023-02-11T05:20:58;102451.94;;;32.28;44.11
64404;BME280;50726;54.912;-8.392;2023-02-11T05:23:24;102452.28;;;32.66;45.57
64404;BME280;50726;54.912;-8.392;2023-02-11T05:25:50;102450.91;;;31.98;45.02
64404;BME280;50726;54.912;-8.392;2023-02-11T05:28:15;102454.19;;;30.12;47.53
64404;BME280;50726;54.912;-8.392;2023-02-11T05:30:41;102461.19;;;30.14;48.97
64404;BME280;50726;54.912;-8.392;2023-02-11T05:33:07;102461.22;;;29.17;50.32
64404;BME280;50726;54.912;-8.392;2023-02-11T05:35:33;102456.16;;;30.44;49.21
64404;BME280;50726;54.912;-8.392;2023-02-11T05:37:58;102465.00;;;32.75;45.85
64404;BME280;50726;54.912;-8.392;2023-02-11T05:40:24;102469.91;;;30.64;48.27
64404;BME280;50726;54.912;-8.392;2023-02-11T05:42:50;102456.97;;;28.62;50.33
64404;BME280;50726;54.912;-8.392;2023-02-11T05:45:16;102474.13;;;29.25;51.16
64404;BME280;50726;54.912;-8.392;2023-02-11T05:47:41;102484.44;;;28.80;50.36
64404;BME280;50726;54.912;-8.392;2023-02-11T05:50:07;102476.81;;;30.79;48.12
64404;BME280;50726;54.912;-8.392;2023-02-11T05:52:33;102497.88;;;31.20;46.91
64404;BME280;50726;54.912;-8.392;2023-02-11T05:54:58;102479.41;;;32.23;46.38
64404;BME280;50726;54.912;-8.392;2023-02-11T05:57:24;102472.94;;;29.53;49.18
64404;BME280;50726;54.912;-8.392;2023-02-11T05:59:50;102479.56;;;31.24;48.20
64404;BME280;50726;54.912;-8.392;2023-02-11T06:02:15;102462.56;;;30.43;48.76
64404;BME280;50726;54.912;-8.392;2023-02-11T06:04:41;102475.25;;;31.44;46.55
64404;BME280;50726;54.912;-8.392;2023-02-11T06:07:08;102467.78;;;32.54;47.11
64404;BME280;50726;54.912;-8.392;2023-02-11T06:09:35;102480.38;;;32.12;48.61
64404;BME280;50726;54.912;-8.392;2023-02-11T06:12:01;102466.41;;;32.70;45.22
64404;BME280;50726;54.912;-8.392;2023-02-11T06:14:26;102472.78;;;32.06;46.54
64404;BME280;50726;54.912;-8.392;2023-02-11T06:16:52;102469.13;;;33.20;45.28
64404;BME280;50726;54.912;-8.392;2023-02-11T06:19:18;102464.28;;;33.34;43.70
64404;BME280;50726;54.912;-8.392;2023-02-11T06:21:43;102475.97;;;35.35;41.98
64404;BME280;50726;54.912;-8.392;2023-02-11T06:24:09;102473.00;;;35.11;41.65
64404;BME280;50726;54.912;-8.392;2023-02-11T06:26:35;102468.44;;;32.87;44.00
64404;BME280;50726;54.912;-8.392;2023-02-11T06:29:01;102463.47;;;34.40;41.57
64404;BME280;50726;54.912;-8.392;2023-02-11T06:31:27;102452.69;;;35.15;40.69
64404;BME280;50726;54.912;-8.392;2023-02-11T06:33:53;102452.13;;;35.92;40.06
64404;BME280;50726;54.912;-8.392;2023-02-11T06:36:20;102451.41;;;32.97;43.07
64404;BME280;50726;54.912;-8.392;2023-02-11T06:38:47;102450.28;;;35.93;40.42
64404;BME280;50726;54.912;-8.392;2023-02-11T06:41:14;102461.03;;;34.75;41.09
64404;BME280;50726;54.912;-8.392;2023-02-11T06:43:41;102454.84;;;35.47;39.30
64404;BME280;50726;54.912;-8.392;2023-02-11T06:46:08;102455.56;;;36.55;39.02
64404;BME280;50726;54.912;-8.392;2023-02-11T06:48:34;102452.03;;;33.50;41.47
64404;BME280;50726;54.912;-8.392;2023-02-11T06:51:05;102465.72;;;32.15;43.09
64404;BME280;50726;54.912;-8.392;2023-02-11T06:53:36;102449.91;;;31.45;45.26
64404;BME280;50726;54.912;-8.392;2023-02-11T06:56:05;102450.88;;;33.42;42.89
64404;BME280;50726;54.912;-8.392;2023-02-11T06:58:31;102462.69;;;33.12;41.71
64404;BME280;50726;54.912;-8.392;2023-02-11T07:00:58;102468.25;;;32.17;44.24
64404;BME280;50726;54.912;-8.392;2023-02-11T07:03:24;102470.09;;;32.68;43.24
64404;BME280;50726;54.912;-8.392;2023-02-11T07:05:50;102474.53;;;32.17;45.41
64404;BME280;50726;54.912;-8.392;2023-02-11T07:08:16;102485.66;;;30.81;46.79
64404;BME280;50726;54.912;-8.392;2023-02-11T07:10:42;102482.72;;;31.52;48.13
64404;BME280;50726;54.912;-8.392;2023-02-11T07:13:07;102489.78;;;31.20;46.52
64404;BME280;50726;54.912;-8.392;2023-02-11T07:15:33;102488.00;;;30.86;48.44
64404;BME280;50726;54.912;-8.392;2023-02-11T07:17:59;102484.38;;;30.51;48.48
64404;BME280;50726;54.912;-8.392;2023-02-11T07:20:25;102496.28;;;31.73;47.97
64404;BME280;50726;54.912;-8.392;2023-02-11T07:22:50;102495.94;;;30.53;47.96
64404;BME280;50726;54.912;-8.392;2023-02-11T07:25:16;102496.16;;;29.67;50.76
64404;BME280;50726;54.912;-8.392;2023-02-11T07:27:42;102489.81;;;30.74;48.71
64404;BME280;50726;54.912;-8.392;2023-02-11T07:30:08;102494.94;;;32.00;47.64
64404;BME280;50726;54.912;-8.392;2023-02-11T07:32:34;102491.78;;;30.95;50.27
64404;BME280;50726;54.912;-8.392;2023-02-11T07:34:59;102497.88;;;31.20;48.10
64404;BME280;50726;54.912;-8.392;2023-02-11T07:37:25;102502.03;;;30.33;50.71
64404;BME280;50726;54.912;-8.392;2023-02-11T07:39:51;102497.28;;;34.08;45.90
64404;BME280;50726;54.912;-8.392;2023-02-11T07:42:17;102501.72;;;34.67;43.15
64404;BME280;50726;54.912;-8.392;2023-02-11T07:44:42;102506.72;;;34.62;42.71
64404;BME280;50726;54.912;-8.392;2023-02-11T07:47:08;102505.22;;;35.05;41.34
64404;BME280;50726;54.912;-8.392;2023-02-11T07:49:33;102503.72;;;34.93;41.97
64404;BME280;50726;54.912;-8.392;2023-02-11T07:51:59;102501.09;;;35.84;40.55
64404;BME280;50726;54.912;-8.392;2023-02-11T07:54:25;102505.94;;;37.46;39.22
64404;BME280;50726;54.912;-8.392;2023-02-11T07:56:50;102507.28;;;36.74;38.59
64404;BME280;50726;54.912;-8.392;2023-02-11T07:59:16;102504.72;;;35.20;40.57
64404;BME280;50726;54.912;-8.392;2023-02-11T08:01:42;102506.13;;;35.24;40.45
64404;BME280;50726;54.912;-8.392;2023-02-11T08:04:08;102509.53;;;32.51;43.29
64404;BME280;50726;54.912;-8.392;2023-02-11T08:06:39;102507.84;;;34.69;42.32
64404;BME280;50726;54.912;-8.392;2023-02-11T08:09:06;102508.75;;;35.16;41.61
64404;BME280;50726;54.912;-8.392;2023-02-11T08:11:34;102518.03;;;32.99;43.55
64404;BME280;50726;54.912;-8.392;2023-02-11T08:13:59;102509.97;;;33.48;42.40
64404;BME280;50726;54.912;-8.392;2023-02-11T08:16:31;102510.00;;;34.08;41.80
64404;BME280;50726;54.912;-8.392;2023-02-11T08:19:00;102502.34;;;34.79;42.38
64404;BME280;50726;54.912;-8.392;2023-02-11T08:21:26;102509.50;;;35.72;41.02
64404;BME280;50726;54.912;-8.392;2023-02-11T08:23:53;102500.88;;;34.09;42.12
64404;BME280;50726;54.912;-8.392;2023-02-11T08:26:21;102504.00;;;35.18;41.73
64404;BME280;50726;54.912;-8.392;2023-02-11T08:28:49;102505.75;;;34.91;41.98
64404;BME280;50726;54.912;-8.392;2023-02-11T08:31:21;102505.13;;;34.01;42.56
64404;BME280;50726;54.912;-8.392;2023-02-11T08:33:47;102512.47;;;33.01;43.71
64404;BME280;50726;54.912;-8.392;2023-02-11T08:36:16;102517.06;;;33.30;43.65
64404;BME280;50726;54.912;-8.392;2023-02-11T08:38:42;102508.25;;;33.47;44.50
64404;BME280;50726;54.912;-8.392;2023-02-11T08:41:09;102502.88;;;35.39;42.56
64404;BME280;50726;54.912;-8.392;2023-02-11T08:43:35;102505.22;;;35.70;39.64
64404;BME280;50726;54.912;-8.392;2023-02-11T08:46:02;102508.47;;;35.92;40.87
64404;BME280;50726;54.912;-8.392;2023-02-11T08:48:28;102497.03;;;35.52;39.88
64404;BME280;50726;54.912;-8.392;2023-02-11T08:50:55;102502.53;;;37.36;38.66
64404;BME280;50726;54.912;-8.392;2023-02-11T08:53:21;102502.19;;;35.08;39.63
64404;BME280;50726;54.912;-8.392;2023-02-11T08:55:51;102502.41;;;36.24;39.57
64404;BME280;50726;54.912;-8.392;2023-02-11T08:58:18;102517.50;;;35.38;38.82
64404;BME280;50726;54.912;-8.392;2023-02-11T09:00:45;102513.09;;;36.18;38.70
64404;BME280;50726;54.912;-8.392;2023-02-11T09:03:12;102508.34;;;34.83;40.01
64404;BME280;50726;54.912;-8.392;2023-02-11T09:05:42;102506.97;;;34.01;41.44
64404;BME280;50726;54.912;-8.392;2023-02-11T09:08:09;102501.38;;;35.99;39.09
64404;BME280;50726;54.912;-8.392;2023-02-11T09:10:35;102497.88;;;36.33;38.61
64404;BME280;50726;54.912;-8.392;2023-02-11T09:13:01;102502.72;;;35.22;38.37
64404;BME280;50726;54.912;-8.392;2023-02-11T09:15:26;102496.78;;;34.33;39.89
64404;BME280;50726;54.912;-8.392;2023-02-11T09:17:52;102499.66;;;35.98;38.57
64404;BME280;50726;54.912;-8.392;2023-02-11T09:20:18;102502.09;;;35.65;38.58
64404;BME280;50726;54.912;-8.392;2023-02-11T09:22:43;102501.69;;;35.59;38.97
64404;BME280;50726;54.912;-8.392;2023-02-11T09:25:09;102505.16;;;35.61;38.37
64404;BME280;50726;54.912;-8.392;2023-02-11T09:27:35;102512.41;;;36.77;37.38
64404;BME280;50726;54.912;-8.392;2023-02-11T09:30:01;102519.16;;;35.67;38.11
64404;BME280;50726;54.912;-8.392;2023-02-11T09:32:27;102515.44;;;36.12;37.48
64404;BME280;50726;54.912;-8.392;2023-02-11T09:34:52;102525.97;;;34.21;40.13
64404;BME280;50726;54.912;-8.392;2023-02-11T09:37:18;102524.63;;;36.64;37.23
64404;BME280;50726;54.912;-8.392;2023-02-11T09:39:44;102522.56;;;33.99;40.07
64404;BME280;50726;54.912;-8.392;2023-02-11T09:42:25;102522.53;;;35.51;39.02
64404;BME280;50726;54.912;-8.392;2023-02-11T09:44:56;102520.78;;;37.52;37.33
64404;BME280;50726;54.912;-8.392;2023-02-11T09:47:33;102517.13;;;36.13;38.35
64404;BME280;50726;54.912;-8.392;2023-02-11T09:50:12;102509.53;;;38.05;36.93
64404;BME280;50726;54.912;-8.392;2023-02-11T09:53:03;102517.88;;;37.37;37.28
64404;BME280;50726;54.912;-8.392;2023-02-11T09:55:46;102516.66;;;35.73;37.66
64404;BME280;50726;54.912;-8.392;2023-02-11T09:58:29;102524.34;;;36.84;38.25
64404;BME280;50726;54.912;-8.392;2023-02-11T10:01:15;102523.13;;;36.70;37.00
64404;BME280;50726;54.912;-8.392;2023-02-11T10:06:46;102525.59;;;36.10;38.69
64404;BME280;50726;54.912;-8.392;2023-02-11T10:17:37;102537.28;;;36.82;36.98
64404;BME280;50726;54.912;-8.392;2023-02-11T10:23:00;102529.78;;;35.78;38.28
64404;BME280;50726;54.912;-8.392;2023-02-11T10:25:45;102532.59;;;34.56;39.71
64404;BME280;50726;54.912;-8.392;2023-02-11T10:28:18;102530.63;;;34.86;39.34
64404;BME280;50726;54.912;-8.392;2023-02-11T10:31:06;102533.41;;;33.69;42.10
64404;BME280;50726;54.912;-8.392;2023-02-11T10:33:44;102537.59;;;33.22;41.16
64404;BME280;50726;54.912;-8.392;2023-02-11T10:36:12;102539.91;;;31.91;44.22
64404;BME280;50726;54.912;-8.392;2023-02-11T10:38:39;102545.56;;;31.10;43.43
64404;BME280;50726;54.912;-8.392;2023-02-11T10:41:05;102538.53;;;33.53;40.66
64404;BME280;50726;54.912;-8.392;2023-02-11T10:43:31;102552.94;;;31.42;45.30
64404;BME280;50726;54.912;-8.392;2023-02-11T10:45:59;102557.94;;;32.45;43.57
64404;BME280;50726;54.912;-8.392;2023-02-11T10:48:50;102560.66;;;31.46;45.67
64404;BME280;50726;54.912;-8.392;2023-02-11T10:51:28;102549.75;;;30.79;46.42
64404;BME280;50726;54.912;-8.392;2023-02-11T10:56:32;102556.25;;;31.11;46.69
64404;BME280;50726;54.912;-8.392;2023-02-11T11:01:47;102552.09;;;32.07;44.35
64404;BME280;50726;54.912;-8.392;2023-02-11T11:04:47;102563.97;;;32.37;44.68
64404;BME280;50726;54.912;-8.392;2023-02-11T11:07:22;102550.88;;;33.86;43.08
64404;BME280;50726;54.912;-8.392;2023-02-11T11:10:05;102553.00;;;31.63;45.09
64404;BME280;50726;54.912;-8.392;2023-02-11T11:15:26;102554.88;;;31.84;45.07
64404;BME280;50726;54.912;-8.392;2023-02-11T11:20:35;102570.25;;;30.71;47.58
64404;BME280;50726;54.912;-8.392;2023-02-11T11:23:20;102547.63;;;30.13;47.51
64404;BME280;50726;54.912;-8.392;2023-02-11T11:26:09;102577.47;;;32.48;46.24
64404;BME280;50726;54.912;-8.392;2023-02-11T11:28:57;102579.59;;;31.91;46.48
64404;BME280;50726;54.912;-8.392;2023-02-11T11:31:27;102578.41;;;32.37;45.72
64404;BME280;50726;54.912;-8.392;2023-02-11T11:33:56;102567.53;;;31.95;45.52
64404;BME280;50726;54.912;-8.392;2023-02-11T11:36:31;102578.16;;;33.34;43.80
64404;BME280;50726;54.912;-8.392;2023-02-11T11:39:01;102577.97;;;30.87;47.47
64404;BME280;50726;54.912;-8.392;2023-02-11T11:41:31;102573.56;;;30.74;48.18
64404;BME280;50726;54.912;-8.392;2023-02-11T11:44:02;102572.06;;;31.50;48.18
64404;BME280;50726;54.912;-8.392;2023-02-11T11:46:34;102573.94;;;31.38;48.72
64404;BME280;50726;54.912;-8.392;2023-02-11T11:49:27;102578.84;;;31.21;48.06
64404;BME280;50726;54.912;-8.392;2023-02-11T11:54:29;102586.47;;;32.70;45.94
64404;BME280;50726;54.912;-8.392;2023-02-11T11:57:01;102582.25;;;33.89;44.05
64404;BME280;50726;54.912;-8.392;2023-02-11T11:59:29;102580.00;;;31.86;45.64
64404;BME280;50726;54.912;-8.392;2023-02-11T12:05:16;102574.72;;;31.84;46.07
64404;BME280;50726;54.912;-8.392;2023-02-11T12:08:09;102577.63;;;31.93;45.41
64404;BME280;50726;54.912;-8.392;2023-02-11T12:13:25;102576.19;;;31.88;46.89
64404;BME280;50726;54.912;-8.392;2023-02-11T12:24:43;102570.75;;;31.44;47.29
64404;BME280;50726;54.912;-8.392;2023-02-11T12:27:17;102571.31;;;31.59;46.36
64404;BME280;50726;54.912;-8.392;2023-02-11T12:32:48;102573.31;;;32.44;45.13
64404;BME280;50726;54.912;-8.392;2023-02-11T12:35:20;102569.66;;;30.90;48.01
64404;BME280;50726;54.912;-8.392;2023-02-11T12:38:04;102569.34;;;31.61;46.67
64404;BME280;50726;54.912;-8.392;2023-02-11T12:40:44;102570.31;;;32.05;45.84
64404;BME280;50726;54.912;-8.392;2023-02-11T12:43:36;102568.28;;;33.84;45.35
64404;BME280;50726;54.912;-8.392;2023-02-11T12:49:21;102568.56;;;33.20;43.70
64404;BME280;50726;54.912;-8.392;2023-02-11T12:52:11;102574.13;;;32.87;44.13
64404;BME280;50726;54.912;-8.392;2023-02-11T12:54:58;102564.38;;;34.36;43.76
64404;BME280;50726;54.912;-8.392;2023-02-11T12:57:28;102569.59;;;33.39;43.07
64404;BME280;50726;54.912;-8.392;2023-02-11T13:05:04;102567.50;;;34.41;43.26
64404;BME280;50726;54.912;-8.392;2023-02-11T13:07:45;102559.84;;;33.97;42.04
64404;BME280;50726;54.912;-8.392;2023-02-11T13:12:58;102552.88;;;34.04;43.24
64404;BME280;50726;54.912;-8.392;2023-02-11T13:15:52;102546.75;;;31.51;46.40
64404;BME280;50726;54.912;-8.392;2023-02-11T13:18:49;102542.94;;;32.19;45.56
64404;BME280;50726;54.912;-8.392;2023-02-11T13:24:22;102546.78;;;32.59;44.99
64404;BME280;50726;54.912;-8.392;2023-02-11T13:32:11;102543.88;;;32.82;45.93
64404;BME280;50726;54.912;-8.392;2023-02-11T13:37:30;102526.56;;;33.65;43.39
64404;BME280;50726;54.912;-8.392;2023-02-11T13:40:06;102543.84;;;31.20;45.96
64404;BME280;50726;54.912;-8.392;2023-02-11T13:42:51;102521.91;;;31.57;46.15
64404;BME280;50726;54.912;-8.392;2023-02-11T13:48:01;102539.88;;;33.17;44.20
64404;BME280;50726;54.912;-8.392;2023-02-11T13:50:32;102532.31;;;33.11;45.34
64404;BME280;50726;54.912;-8.392;2023-02-11T13:53:01;102533.13;;;31.85;45.44
64404;BME280;50726;54.912;-8.392;2023-02-11T13:55:28;102529.97;;;31.02;46.24
64404;BME280;50726;54.912;-8.392;2023-02-11T14:14:16;102520.50;;;31.74;47.45
64404;BME280;50726;54.912;-8.392;2023-02-11T14:19:36;102518.03;;;31.27;46.56
64404;BME280;50726;54.912;-8.392;2023-02-11T14:27:12;102507.06;;;32.27;44.69
64404;BME280;50726;54.912;-8.392;2023-02-11T14:40:28;102507.84;;;30.39;47.96
64404;BME280;50726;54.912;-8.392;2023-02-11T14:42:56;102505.16;;;31.64;46.37
64404;BME280;50726;54.912;-8.392;2023-02-11T14:45:27;102507.44;;;30.33;48.35
64404;BME280;50726;54.912;-8.392;2023-02-11T14:48:05;102501.84;;;30.47;49.15
64404;BME280;50726;54.912;-8.392;2023-02-11T14:53:31;102502.75;;;31.49;47.01
64404;BME280;50726;54.912;-8.392;2023-02-11T14:55:57;102495.09;;;30.06;48.55
64404;BME280;50726;54.912;-8.392;2023-02-11T14:58:29;102492.53;;;30.86;47.68
64404;BME280;50726;54.912;-8.392;2023-02-11T15:01:04;102502.78;;;30.46;50.36
64404;BME280;50726;54.912;-8.392;2023-02-11T15:03:41;102494.91;;;30.20;48.82
64404;BME280;50726;54.912;-8.392;2023-02-11T15:06:20;102501.41;;;30.18;48.90
64404;BME280;50726;54.912;-8.392;2023-02-11T15:11:16;102500.31;;;30.32;49.72
64404;BME280;50726;54.912;-8.392;2023-02-11T15:13:43;102505.38;;;31.39;47.73
64404;BME280;50726;54.912;-8.392;2023-02-11T15:16:25;102499.59;;;30.64;48.77
64404;BME280;50726;54.912;-8.392;2023-02-11T15:19:00;102499.66;;;30.75;47.40
64404;BME280;50726;54.912;-8.392;2023-02-11T15:21:29;102504.56;;;29.87;49.82
64404;BME280;50726;54.912;-8.392;2023-02-11T15:24:19;102504.78;;;31.13;47.58
64404;BME280;50726;54.912;-8.392;2023-02-11T15:27:00;102497.53;;;31.13;44.14
64404;BME280;50726;54.912;-8.392;2023-02-11T15:29:41;102495.88;;;31.45;46.57
64404;BME280;50726;54.912;-8.392;2023-02-11T15:34:45;102506.59;;;30.66;46.28